Time;durP1;ratioP1;P1;durP2;ratioP2;P2;SDS_P1;SDS_P2;PMS_P1;PMS_P2;Temp;Humidity;BMP_temperature;BMP_pressure;BME280_temperature;BME280_humidity;BME280_pressure;Samples;Min_cycle;Max_cycle;Signal;HPM_P1;HPM_P2
2022/04/28 00:00:59;;;;;;;10.45;4.90;;;;;;;;;;5053091;28;20112;-69
2022/04/28 00:03:26;;;;;;;10.63;4.72;;;;;;;;;;5053435;28;20025;-69
2022/04/28 00:05:52;;;;;;;10.57;4.80;;;;;;;;;;5052788;28;20083;-71
2022/04/28 00:08:18;;;;;;;12.07;4.40;;;;;;;;;;5053297;28;20060;-69
2022/04/28 00:10:44;;;;;;;11.23;4.57;;;;;;;;;;5053181;28;20444;-70
2022/04/28 00:13:14;;;;;;;8.77;4.20;;;;;;;;;;5053207;28;20440;-69
2022/04/28 00:15:40;;;;;;;8.00;4.55;;;;;;;;;;5052687;28;20687;-70
2022/04/28 00:18:06;;;;;;;8.40;4.00;;;;;;;;;;5053205;28;20060;-69
2022/04/28 00:20:32;;;;;;;8.15;4.40;;;;;;;;;;5053155;28;20064;-70
2022/04/28 00:22:57;;;;;;;8.63;4.30;;;;;;;;;;5052818;28;20044;-70
2022/04/28 00:25:23;;;;;;;11.15;4.68;;;;;;;;;;5052489;28;20064;-69
2022/04/28 00:27:50;;;;;;;7.43;4.47;;;;;;;;;;5052659;28;20029;-70
2022/04/28 00:30:16;;;;;;;9.65;4.22;;;;;;;;;;5052802;28;20021;-69
2022/04/28 00:32:42;;;;;;;9.43;4.45;;;;;;;;;;5052624;28;20037;-69
2022/04/28 00:35:08;;;;;;;7.78;4.50;;;;;;;;;;5052971;28;20388;-70
2022/04/28 00:37:34;;;;;;;7.65;4.60;;;;;;;;;;5052428;28;20547;-70
2022/04/28 00:40:01;;;;;;;8.38;4.35;;;;;;;;;;5052729;28;20024;-67
2022/04/28 00:42:28;;;;;;;10.65;4.78;;;;;;;;;;5052436;28;20061;-70
2022/04/28 00:44:54;;;;;;;10.23;4.43;;;;;;;;;;5052215;28;20028;-69
2022/04/28 00:47:20;;;;;;;7.78;4.32;;;;;;;;;;5052263;28;20032;-68
2022/04/28 00:52:32;;;;;;;6.68;3.90;;;;;;;;;;5052029;28;20546;-69
2022/04/28 00:54:59;;;;;;;10.10;4.80;;;;;;;;;;5034883;28;20017;-69
2022/04/28 00:57:26;;;;;;;8.10;4.22;;;;;;;;;;5051955;28;20473;-70
2022/04/28 00:59:52;;;;;;;7.82;4.20;;;;;;;;;;5052196;28;20074;-70
2022/04/28 01:02:18;;;;;;;7.50;4.03;;;;;;;;;;5051957;28;20443;-70
2022/04/28 01:04:46;;;;;;;8.48;4.07;;;;;;;;;;5052133;28;20435;-71
2022/04/28 01:07:12;;;;;;;8.20;3.85;;;;;;;;;;5051926;28;20507;-70
2022/04/28 01:09:40;;;;;;;6.90;4.05;;;;;;;;;;5052387;28;20025;-70
2022/04/28 01:12:16;;;;;;;7.75;4.28;;;;;;;;;;5051852;28;20464;-70
2022/04/28 01:14:44;;;;;;;8.85;4.22;;;;;;;;;;5051886;28;20057;-68
2022/04/28 01:17:10;;;;;;;6.00;3.58;;;;;;;;;;5051608;28;20025;-69
2022/04/28 01:19:36;;;;;;;8.10;4.20;;;;;;;;;;5051991;28;20055;-69
2022/04/28 01:22:02;;;;;;;5.20;3.65;;;;;;;;;;5051764;28;20041;-70
2022/04/28 01:24:28;;;;;;;9.50;4.18;;;;;;;;;;5052335;28;20036;-69
2022/04/28 01:26:56;;;;;;;6.22;3.58;;;;;;;;;;5051504;28;20025;-70
2022/04/28 01:29:22;;;;;;;7.55;3.90;;;;;;;;;;5051760;28;20480;-70
2022/04/28 01:31:49;;;;;;;8.40;3.70;;;;;;;;;;5051446;28;20029;-70
2022/04/28 01:34:14;;;;;;;7.80;3.78;;;;;;;;;;5051574;28;20033;-70
2022/04/28 01:36:40;;;;;;;7.40;3.85;;;;;;;;;;5051352;28;20075;-70
2022/04/28 01:39:10;;;;;;;8.18;3.92;;;;;;;;;;5051504;28;20082;-70
2022/04/28 01:41:36;;;;;;;7.80;3.60;;;;;;;;;;5051585;28;20050;-70
2022/04/28 01:44:02;;;;;;;6.40;3.63;;;;;;;;;;5051572;28;20029;-69
2022/04/28 01:46:28;;;;;;;5.88;3.58;;;;;;;;;;5051419;28;20025;-70
2022/04/28 01:48:55;;;;;;;7.10;3.38;;;;;;;;;;5051169;28;20033;-69
2022/04/28 01:56:48;;;;;;;6.97;3.75;;;;;;;;;;5051316;28;20534;-70
2022/04/28 01:59:14;;;;;;;7.45;3.80;;;;;;;;;;5051072;28;20028;-69
2022/04/28 02:01:39;;;;;;;7.18;3.70;;;;;;;;;;5051206;28;20500;-69
2022/04/28 02:04:05;;;;;;;6.55;3.70;;;;;;;;;;5050119;28;20481;-69
2022/04/28 02:06:31;;;;;;;8.77;3.80;;;;;;;;;;5050995;28;20288;-69
2022/04/28 02:08:56;;;;;;;7.25;4.13;;;;;;;;;;5050655;28;20021;-69
2022/04/28 02:11:22;;;;;;;7.07;3.72;;;;;;;;;;5051090;28;20023;-69
2022/04/28 02:13:47;;;;;;;9.77;4.25;;;;;;;;;;5050972;28;20028;-69
2022/04/28 02:16:13;;;;;;;6.90;3.90;;;;;;;;;;5050602;28;20318;-68
2022/04/28 02:18:39;;;;;;;7.65;4.18;;;;;;;;;;5050659;28;20530;-69
2022/04/28 02:21:04;;;;;;;7.30;4.45;;;;;;;;;;5050936;28;20036;-70
2022/04/28 02:23:30;;;;;;;6.20;4.15;;;;;;;;;;5050539;28;20029;-69
2022/04/28 02:25:56;;;;;;;7.80;4.07;;;;;;;;;;5050065;28;20413;-70
2022/04/28 02:28:21;;;;;;;7.03;4.20;;;;;;;;;;5050444;28;20039;-70
2022/04/28 02:30:47;;;;;;;6.30;3.60;;;;;;;;;;5050501;28;20469;-69
2022/04/28 02:33:13;;;;;;;7.95;3.90;;;;;;;;;;5050500;28;20051;-70
2022/04/28 02:35:39;;;;;;;9.73;3.80;;;;;;;;;;5050741;28;20132;-69
2022/04/28 02:38:06;;;;;;;8.35;3.90;;;;;;;;;;5050033;28;20028;-69
2022/04/28 02:40:33;;;;;;;6.07;3.70;;;;;;;;;;5050729;28;20114;-69
2022/04/28 02:42:59;;;;;;;6.68;4.05;;;;;;;;;;5050548;28;20021;-69
2022/04/28 02:45:25;;;;;;;6.35;3.78;;;;;;;;;;5050262;28;20025;-69
2022/04/28 02:47:52;;;;;;;9.02;4.05;;;;;;;;;;5050308;28;20468;-70
2022/04/28 02:50:21;;;;;;;8.70;3.85;;;;;;;;;;5050334;28;20029;-70
2022/04/28 02:52:49;;;;;;;7.13;4.00;;;;;;;;;;5049990;28;20029;-70
2022/04/28 02:55:15;;;;;;;7.43;3.80;;;;;;;;;;5050469;28;20086;-70
2022/04/28 02:57:41;;;;;;;8.10;4.00;;;;;;;;;;5049844;28;20068;-69
2022/04/28 03:00:08;;;;;;;6.90;3.60;;;;;;;;;;5050060;28;20159;-69
2022/04/28 03:02:33;;;;;;;7.18;3.10;;;;;;;;;;5049861;28;20038;-69
2022/04/28 03:05:01;;;;;;;6.30;3.67;;;;;;;;;;5050142;28;20037;-70
2022/04/28 03:12:58;;;;;;;7.28;3.55;;;;;;;;;;5050056;28;20074;-70
2022/04/28 03:15:25;;;;;;;5.82;3.38;;;;;;;;;;5048875;28;20108;-70
2022/04/28 03:17:51;;;;;;;6.65;3.45;;;;;;;;;;5049319;28;20025;-69
2022/04/28 03:20:16;;;;;;;5.60;3.40;;;;;;;;;;5049776;28;20017;-70
2022/04/28 03:22:43;;;;;;;5.63;3.53;;;;;;;;;;5049849;28;20062;-69
2022/04/28 03:25:10;;;;;;;5.80;3.25;;;;;;;;;;5049729;28;20328;-69
2022/04/28 03:27:36;;;;;;;6.15;3.60;;;;;;;;;;5049849;28;20091;-69
2022/04/28 03:30:03;;;;;;;7.25;3.03;;;;;;;;;;5049459;28;20029;-69
2022/04/28 03:32:29;;;;;;;5.13;3.30;;;;;;;;;;5049862;28;20397;-69
2022/04/28 03:34:54;;;;;;;3.97;3.20;;;;;;;;;;5049502;28;20019;-69
2022/04/28 03:37:20;;;;;;;7.50;3.55;;;;;;;;;;5049551;28;20358;-70
2022/04/28 03:39:46;;;;;;;6.10;4.05;;;;;;;;;;5049964;28;20025;-70
2022/04/28 03:42:11;;;;;;;8.35;3.40;;;;;;;;;;5049788;28;20401;-69
2022/04/28 03:44:37;;;;;;;5.03;3.38;;;;;;;;;;5049570;28;20480;-69
2022/04/28 03:47:03;;;;;;;5.78;3.30;;;;;;;;;;5049565;28;20095;-69
2022/04/28 03:49:29;;;;;;;6.72;3.60;;;;;;;;;;5049465;28;20021;-69
2022/04/28 03:51:55;;;;;;;5.72;3.60;;;;;;;;;;5049888;28;20021;-70
2022/04/28 03:54:21;;;;;;;8.00;3.60;;;;;;;;;;5049075;28;20033;-69
2022/04/28 03:56:47;;;;;;;6.82;3.50;;;;;;;;;;5049564;28;20052;-70
2022/04/28 03:59:13;;;;;;;8.48;3.45;;;;;;;;;;5049419;28;20023;-70
2022/04/28 04:01:39;;;;;;;6.25;3.45;;;;;;;;;;5049612;28;20024;-69
2022/04/28 04:04:04;;;;;;;7.75;3.75;;;;;;;;;;5049039;28;20562;-70
2022/04/28 04:06:31;;;;;;;6.20;3.90;;;;;;;;;;5049381;28;20025;-70
2022/04/28 04:08:57;;;;;;;5.97;3.58;;;;;;;;;;5048981;28;20025;-70
2022/04/28 04:11:23;;;;;;;5.15;3.15;;;;;;;;;;5049256;28;20021;-70
2022/04/28 04:13:49;;;;;;;5.43;3.17;;;;;;;;;;5049094;28;20048;-70
2022/04/28 04:16:15;;;;;;;5.03;3.40;;;;;;;;;;5049289;28;20025;-69
2022/04/28 04:18:40;;;;;;;7.13;3.55;;;;;;;;;;5049028;28;20032;-70
2022/04/28 04:21:06;;;;;;;6.15;3.70;;;;;;;;;;5049272;28;20033;-70
2022/04/28 04:23:32;;;;;;;8.88;3.72;;;;;;;;;;5049082;28;20028;-70
2022/04/28 04:25:58;;;;;;;6.75;3.40;;;;;;;;;;5049380;28;20086;-69
2022/04/28 04:28:24;;;;;;;11.32;3.47;;;;;;;;;;5052783;28;20032;-69
2022/04/28 04:33:36;;;;;;;6.60;3.50;;;;;;;;;;5052962;28;20039;-69
2022/04/28 04:36:03;;;;;;;6.88;3.70;;;;;;;;;;5052736;28;20450;-70
2022/04/28 04:38:28;;;;;;;8.10;3.95;;;;;;;;;;5052533;28;20504;-69
2022/04/28 04:40:54;;;;;;;6.10;3.25;;;;;;;;;;5052418;28;20120;-69
2022/04/28 04:43:20;;;;;;;10.77;3.53;;;;;;;;;;5052775;28;20052;-70
2022/04/28 04:45:45;;;;;;;10.02;3.58;;;;;;;;;;5052132;28;20036;-69
2022/04/28 04:48:12;;;;;;;7.00;4.00;;;;;;;;;;5052502;28;20033;-69
2022/04/28 04:50:39;;;;;;;7.57;3.67;;;;;;;;;;5052293;28;20070;-69
2022/04/28 04:53:05;;;;;;;7.25;4.05;;;;;;;;;;5052547;28;20029;-69
2022/04/28 04:55:32;;;;;;;7.80;4.03;;;;;;;;;;5034385;28;20405;-69
2022/04/28 04:57:58;;;;;;;10.63;4.03;;;;;;;;;;5052186;28;20161;-70
2022/04/28 05:00:23;;;;;;;7.25;3.60;;;;;;;;;;5052048;28;20103;-70
2022/04/28 05:02:49;;;;;;;8.40;3.63;;;;;;;;;;5052201;28;20032;-70
2022/04/28 05:05:15;;;;;;;7.55;4.07;;;;;;;;;;5052033;28;20032;-70
2022/04/28 05:07:41;;;;;;;9.75;3.70;;;;;;;;;;5052080;28;20029;-69
2022/04/28 05:10:07;;;;;;;10.98;4.05;;;;;;;;;;5052036;28;20029;-70
2022/04/28 05:12:33;;;;;;;6.40;3.90;;;;;;;;;;5052312;28;20029;-70
2022/04/28 05:14:58;;;;;;;10.95;3.80;;;;;;;;;;5051769;28;20037;-70
2022/04/28 05:17:24;;;;;;;7.35;3.88;;;;;;;;;;5051776;28;20033;-70
2022/04/28 05:19:49;;;;;;;8.05;3.80;;;;;;;;;;5051557;28;20029;-69
2022/04/28 05:22:14;;;;;;;7.70;3.80;;;;;;;;;;5052215;28;20116;-69
2022/04/28 05:24:40;;;;;;;6.47;3.70;;;;;;;;;;5033852;28;20037;-68
2022/04/28 05:27:05;;;;;;;9.02;3.67;;;;;;;;;;5051687;28;20475;-69
2022/04/28 05:29:31;;;;;;;7.40;4.07;;;;;;;;;;5051587;28;20096;-69
2022/04/28 05:31:56;;;;;;;12.35;4.50;;;;;;;;;;5051917;28;20052;-69
2022/04/28 05:34:21;;;;;;;6.47;3.53;;;;;;;;;;5051809;28;20849;-69
2022/04/28 05:36:48;;;;;;;7.55;3.58;;;;;;;;;;5051578;28;20031;-69
2022/04/28 05:39:15;;;;;;;6.85;3.20;;;;;;;;;;5050500;28;20029;-69
2022/04/28 05:41:41;;;;;;;8.38;3.58;;;;;;;;;;5051360;28;20461;-68
2022/04/28 05:46:52;;;;;;;6.07;3.15;;;;;;;;;;5052121;28;20051;-68
2022/04/28 05:49:17;;;;;;;4.90;2.88;;;;;;;;;;5051374;28;20495;-70
2022/04/28 05:51:43;;;;;;;8.60;3.10;;;;;;;;;;5051345;28;20289;-68
2022/04/28 05:54:08;;;;;;;8.75;3.63;;;;;;;;;;5051295;28;20416;-69
2022/04/28 05:56:34;;;;;;;7.30;3.20;;;;;;;;;;5051192;28;20571;-68
2022/04/28 05:58:59;;;;;;;6.05;3.08;;;;;;;;;;5050985;28;20412;-69
2022/04/28 06:01:24;;;;;;;6.32;2.70;;;;;;;;;;5050940;28;20396;-68
2022/04/28 06:03:50;;;;;;;8.18;3.10;;;;;;;;;;5033227;28;20412;-68
2022/04/28 06:06:15;;;;;;;9.05;3.45;;;;;;;;;;5050607;28;20516;-69
2022/04/28 06:08:41;;;;;;;7.32;2.83;;;;;;;;;;5050842;28;20036;-70
2022/04/28 06:11:06;;;;;;;7.75;2.80;;;;;;;;;;5050691;28;20055;-70
2022/04/28 06:13:32;;;;;;;8.68;2.92;;;;;;;;;;5050836;28;20036;-70
2022/04/28 06:16:00;;;;;;;9.32;2.88;;;;;;;;;;5050520;28;20068;-69
2022/04/28 06:18:27;;;;;;;7.45;3.33;;;;;;;;;;5050784;28;20029;-69
2022/04/28 06:20:53;;;;;;;7.65;3.17;;;;;;;;;;5050632;28;20117;-69
2022/04/28 06:23:18;;;;;;;9.95;3.00;;;;;;;;;;5050720;28;20515;-70
2022/04/28 06:25:44;;;;;;;5.13;2.90;;;;;;;;;;5050670;28;20025;-69
2022/04/28 06:28:09;;;;;;;7.13;3.08;;;;;;;;;;5050705;28;20027;-68
2022/04/28 06:30:36;;;;;;;7.18;3.33;;;;;;;;;;5050119;28;20029;-69
2022/04/28 06:33:01;;;;;;;8.13;3.17;;;;;;;;;;5050735;28;20032;-72
2022/04/28 06:35:27;;;;;;;11.00;3.10;;;;;;;;;;5050529;28;20392;-72
2022/04/28 06:37:53;;;;;;;8.35;3.25;;;;;;;;;;5050213;28;20048;-72
2022/04/28 06:40:18;;;;;;;5.78;2.90;;;;;;;;;;5050101;28;20549;-72
2022/04/28 06:42:44;;;;;;;7.63;3.20;;;;;;;;;;5050378;28;20078;-72
2022/04/28 06:45:13;;;;;;;8.13;3.08;;;;;;;;;;5049711;28;20029;-73
2022/04/28 06:47:39;;;;;;;9.45;2.97;;;;;;;;;;5050223;28;20033;-74
2022/04/28 06:50:05;;;;;;;7.85;2.60;;;;;;;;;;5050202;28;20021;-71
2022/04/28 06:52:31;;;;;;;8.70;2.70;;;;;;;;;;5050231;28;20025;-70
2022/04/28 06:54:56;;;;;;;9.50;2.88;;;;;;;;;;5052478;28;20181;-71
2022/04/28 06:57:21;;;;;;;8.02;2.80;;;;;;;;;;5050106;28;20104;-71
2022/04/28 06:59:47;;;;;;;11.93;3.20;;;;;;;;;;5049647;28;20024;-75
2022/04/28 07:02:14;;;;;;;9.68;2.90;;;;;;;;;;5049687;28;20021;-74
2022/04/28 07:04:39;;;;;;;6.25;2.30;;;;;;;;;;5049946;28;20460;-71
2022/04/28 07:07:05;;;;;;;5.00;2.22;;;;;;;;;;5049954;28;20511;-73
2022/04/28 07:09:30;;;;;;;6.50;2.10;;;;;;;;;;5049932;28;20025;-72
2022/04/28 07:11:56;;;;;;;6.60;2.50;;;;;;;;;;5049794;28;20056;-73
2022/04/28 07:14:21;;;;;;;6.57;2.42;;;;;;;;;;5049815;28;20098;-70
2022/04/28 07:16:46;;;;;;;7.60;2.10;;;;;;;;;;5049598;28;20074;-73
2022/04/28 07:19:12;;;;;;;5.57;1.90;;;;;;;;;;5051198;28;20021;-73
2022/04/28 07:21:37;;;;;;;5.65;1.90;;;;;;;;;;5049839;28;20104;-75
2022/04/28 07:24:03;;;;;;;5.00;2.13;;;;;;;;;;5049751;28;20028;-73
2022/04/28 07:26:29;;;;;;;5.63;2.08;;;;;;;;;;5049666;28;20029;-72
2022/04/28 07:28:54;;;;;;;5.75;1.95;;;;;;;;;;5049396;28;20036;-73
2022/04/28 07:31:20;;;;;;;4.20;1.95;;;;;;;;;;5049487;28;20043;-73
2022/04/28 07:33:45;;;;;;;4.90;2.10;;;;;;;;;;5049862;28;20021;-75
2022/04/28 07:36:12;;;;;;;4.13;2.13;;;;;;;;;;5049434;28;20025;-71
2022/04/28 07:38:38;;;;;;;5.85;1.95;;;;;;;;;;5049478;28;20056;-72
2022/04/28 07:41:04;;;;;;;7.35;2.15;;;;;;;;;;5049505;28;20060;-73
2022/04/28 07:43:29;;;;;;;4.55;2.10;;;;;;;;;;5049532;28;20029;-72
2022/04/28 07:45:55;;;;;;;4.65;2.10;;;;;;;;;;5049148;28;20083;-69
2022/04/28 07:48:20;;;;;;;6.22;2.00;;;;;;;;;;5049497;28;20029;-71
2022/04/28 07:50:47;;;;;;;4.50;1.85;;;;;;;;;;5049638;28;20028;-72
2022/04/28 07:53:13;;;;;;;5.60;2.20;;;;;;;;;;5049599;28;20025;-73
2022/04/28 07:55:38;;;;;;;4.13;2.10;;;;;;;;;;5049176;28;20025;-74
2022/04/28 07:58:04;;;;;;;6.68;1.90;;;;;;;;;;5049271;28;20469;-70
2022/04/28 08:00:29;;;;;;;7.05;2.20;;;;;;;;;;5049437;28;20403;-72
2022/04/28 08:02:55;;;;;;;7.70;2.40;;;;;;;;;;5053007;28;20152;-73
2022/04/28 08:05:20;;;;;;;6.07;2.10;;;;;;;;;;5053267;28;20033;-70
2022/04/28 08:07:46;;;;;;;4.53;1.95;;;;;;;;;;5053216;28;20071;-70
2022/04/28 08:10:12;;;;;;;5.28;1.98;;;;;;;;;;5053087;28;20091;-70
2022/04/28 08:12:38;;;;;;;4.95;2.08;;;;;;;;;;5052908;28;20041;-74
2022/04/28 08:15:04;;;;;;;5.32;2.00;;;;;;;;;;5053162;28;20028;-72
2022/04/28 08:17:29;;;;;;;5.45;2.00;;;;;;;;;;5052932;28;20032;-70
2022/04/28 08:19:55;;;;;;;5.93;2.00;;;;;;;;;;5053001;28;20021;-71
2022/04/28 08:22:20;;;;;;;3.70;2.10;;;;;;;;;;5052968;28;20256;-74
2022/04/28 08:24:46;;;;;;;6.70;2.17;;;;;;;;;;5053065;28;20024;-74
2022/04/28 08:27:11;;;;;;;4.25;2.00;;;;;;;;;;5052590;28;20036;-71
2022/04/28 08:29:36;;;;;;;4.80;2.08;;;;;;;;;;5052773;28;20068;-71
2022/04/28 08:32:02;;;;;;;5.10;1.85;;;;;;;;;;5052785;28;20154;-72
2022/04/28 08:34:28;;;;;;;5.68;2.00;;;;;;;;;;5053034;28;20112;-72
2022/04/28 08:36:53;;;;;;;4.30;2.28;;;;;;;;;;5052786;28;20040;-74
2022/04/28 08:39:19;;;;;;;4.03;1.95;;;;;;;;;;5034938;28;20031;-70
2022/04/28 08:41:45;;;;;;;5.53;2.08;;;;;;;;;;5052209;28;20496;-73
2022/04/28 08:44:21;;;;;;;6.18;2.50;;;;;;;;;;5052340;28;20032;-73
2022/04/28 08:46:50;;;;;;;4.47;1.90;;;;;;;;;;5052175;28;20029;-73
2022/04/28 08:49:21;;;;;;;5.25;2.10;;;;;;;;;;5052386;28;20036;-72
2022/04/28 08:51:46;;;;;;;;;;;;;;;;;;5052712;28;20048;-70
2022/04/28 08:54:13;;;;;;;6.28;2.00;;;;;;;;;;5052761;28;20372;-73
2022/04/28 08:56:39;;;;;;;4.97;2.00;;;;;;;;;;5052284;28;20029;-70
2022/04/28 08:59:06;;;;;;;9.13;2.30;;;;;;;;;;5052189;28;20480;-72
2022/04/28 09:01:32;;;;;;;4.75;2.38;;;;;;;;;;5052206;28;20025;-71
2022/04/28 09:03:59;;;;;;;7.35;2.40;;;;;;;;;;5051901;28;20132;-71
2022/04/28 09:06:30;;;;;;;6.45;2.17;;;;;;;;;;5052038;28;20071;-72
2022/04/28 09:08:57;;;;;;;5.22;2.22;;;;;;;;;;5051761;28;20053;-70
2022/04/28 09:11:25;;;;;;;4.47;1.92;;;;;;;;;;5052442;28;20115;-71
2022/04/28 09:14:11;;;;;;;3.80;1.90;;;;;;;;;;5051834;28;20044;-71
2022/04/28 09:16:43;;;;;;;3.78;2.05;;;;;;;;;;5051970;28;20025;-71
2022/04/28 09:19:25;;;;;;;5.07;1.83;;;;;;;;;;5051510;28;20109;-71
2022/04/28 09:21:53;;;;;;;4.85;2.33;;;;;;;;;;5051734;28;20515;-71
2022/04/28 09:24:20;;;;;;;3.88;2.05;;;;;;;;;;5052150;28;20029;-71
2022/04/28 09:26:47;;;;;;;3.88;1.90;;;;;;;;;;5051826;28;20099;-71
2022/04/28 09:29:16;;;;;;;4.00;1.90;;;;;;;;;;5051264;28;20028;-71
2022/04/28 09:31:43;;;;;;;5.78;1.90;;;;;;;;;;5051797;28;20060;-71
2022/04/28 09:34:14;;;;;;;2.83;1.73;;;;;;;;;;5051586;28;20393;-73
2022/04/28 09:36:42;;;;;;;6.25;1.70;;;;;;;;;;5051682;28;20272;-72
2022/04/28 09:39:12;;;;;;;4.40;1.90;;;;;;;;;;5051277;28;20027;-72
2022/04/28 09:44:22;;;;;;;5.65;1.92;;;;;;;;;;5051617;28;20545;-72
2022/04/28 09:46:49;;;;;;;3.67;1.80;;;;;;;;;;5051829;28;20270;-73
2022/04/28 09:49:21;;;;;;;4.50;1.55;;;;;;;;;;5050999;28;20025;-71
2022/04/28 09:51:47;;;;;;;5.75;1.60;;;;;;;;;;5051315;28;20025;-70
2022/04/28 09:54:16;;;;;;;2.55;1.50;;;;;;;;;;5050909;28;20036;-71
2022/04/28 09:56:43;;;;;;;2.83;1.50;;;;;;;;;;5051154;28;20475;-74
2022/04/28 09:59:12;;;;;;;2.45;1.10;;;;;;;;;;5050846;28;20017;-74
2022/04/28 10:01:38;;;;;;;4.63;1.50;;;;;;;;;;5051190;28;20028;-71
2022/04/28 10:04:05;;;;;;;7.28;1.63;;;;;;;;;;5050941;28;20029;-72
2022/04/28 10:06:34;;;;;;;4.60;1.50;;;;;;;;;;5051200;28;20029;-73
2022/04/28 10:09:04;;;;;;;4.97;1.50;;;;;;;;;;5050591;28;20024;-70
2022/04/28 10:11:30;;;;;;;3.42;1.40;;;;;;;;;;5050758;28;20055;-72
2022/04/28 10:13:57;;;;;;;3.75;1.55;;;;;;;;;;5050695;28;20032;-73
2022/04/28 10:16:24;;;;;;;4.25;1.35;;;;;;;;;;5050761;28;20484;-73
2022/04/28 10:19:17;;;;;;;2.75;1.42;;;;;;;;;;5050469;28;20108;-72
2022/04/28 10:21:58;;;;;;;4.93;1.50;;;;;;;;;;5046930;28;20519;-74
2022/04/28 10:32:59;;;;;;;4.88;1.98;;;;;;;;;;5050746;28;20440;-71
2022/04/28 10:35:35;;;;;;;3.72;1.60;;;;;;;;;;5050867;28;20481;-74
2022/04/28 10:38:19;;;;;;;5.22;1.80;;;;;;;;;;5050373;28;20082;-71
2022/04/28 10:40:54;;;;;;;3.65;1.70;;;;;;;;;;5050055;28;20055;-72
2022/04/28 10:43:30;;;;;;;3.95;1.70;;;;;;;;;;5050401;28;20025;-72
2022/04/28 10:45:57;;;;;;;2.90;1.60;;;;;;;;;;5049924;28;20037;-71
2022/04/28 10:48:41;;;;;;;3.80;1.73;;;;;;;;;;5050149;28;20084;-72
2022/04/28 10:51:15;;;;;;;3.67;1.63;;;;;;;;;;5050123;28;20031;-72
2022/04/28 10:53:56;;;;;;;3.75;1.52;;;;;;;;;;5050415;28;20029;-71
2022/04/28 10:56:22;;;;;;;3.75;1.70;;;;;;;;;;5050159;28;20032;-70
2022/04/28 10:58:48;;;;;;;4.57;1.40;;;;;;;;;;5050101;28;20020;-72
2022/04/28 11:01:32;;;;;;;4.25;1.52;;;;;;;;;;5049689;28;20381;-73
2022/04/28 11:04:02;;;;;;;2.47;1.20;;;;;;;;;;5050168;28;20496;-72
2022/04/28 11:06:38;;;;;;;3.47;1.30;;;;;;;;;;5049882;28;20047;-71
2022/04/28 11:09:05;;;;;;;2.90;1.30;;;;;;;;;;5049859;28;20033;-73
2022/04/28 11:11:43;;;;;;;3.00;1.00;;;;;;;;;;5050044;28;20025;-74
2022/04/28 11:14:08;;;;;;;2.67;1.30;;;;;;;;;;5049814;28;20075;-73
2022/04/28 11:16:34;;;;;;;3.13;1.30;;;;;;;;;;5049935;28;20057;-73
2022/04/28 11:19:01;;;;;;;3.15;1.10;;;;;;;;;;5049693;28;20040;-71
2022/04/28 11:21:27;;;;;;;3.95;1.00;;;;;;;;;;5049722;28;20021;-72
2022/04/28 11:23:53;;;;;;;2.17;1.13;;;;;;;;;;5049648;28;20304;-72
2022/04/28 11:26:20;;;;;;;4.53;1.10;;;;;;;;;;5049818;28;20289;-71
2022/04/28 11:28:45;;;;;;;2.88;1.10;;;;;;;;;;5049662;28;20573;-72
2022/04/28 11:31:18;;;;;;;1.55;1.00;;;;;;;;;;5049602;28;20021;-72
2022/04/28 11:33:47;;;;;;;2.50;1.00;;;;;;;;;;5049466;28;20029;-70
2022/04/28 11:36:23;;;;;;;1.73;0.90;;;;;;;;;;5050512;28;20093;-70
2022/04/28 11:39:01;;;;;;;2.03;0.93;;;;;;;;;;5053392;28;20029;-72
2022/04/28 11:41:33;;;;;;;3.55;0.90;;;;;;;;;;5053468;28;20389;-72
2022/04/28 11:44:13;;;;;;;1.98;1.00;;;;;;;;;;5053589;28;20033;-70
2022/04/28 11:46:42;;;;;;;2.08;0.80;;;;;;;;;;5053948;28;20037;-74
2022/04/28 11:49:07;;;;;;;1.08;0.80;;;;;;;;;;5053512;28;20029;-70
2022/04/28 11:51:34;;;;;;;1.30;0.80;;;;;;;;;;5053541;28;20488;-73
2022/04/28 11:54:00;;;;;;;3.92;0.82;;;;;;;;;;5053319;28;20029;-72
2022/04/28 11:56:30;;;;;;;2.95;0.90;;;;;;;;;;5053621;28;20384;-70
2022/04/28 11:58:55;;;;;;;2.42;1.00;;;;;;;;;;5053409;28;20025;-72
2022/04/28 12:01:21;;;;;;;1.70;0.80;;;;;;;;;;5053358;28;20362;-73
2022/04/28 12:03:53;;;;;;;2.42;0.80;;;;;;;;;;5053745;28;20025;-71
2022/04/28 12:06:20;;;;;;;2.08;0.90;;;;;;;;;;5053519;28;20100;-70
2022/04/28 12:08:54;;;;;;;1.75;0.88;;;;;;;;;;5053140;28;20458;-70
2022/04/28 12:14:26;;;;;;;1.30;0.70;;;;;;;;;;4971340;28;20481;-72
2022/04/28 12:20:11;;;;;;;2.08;0.90;;;;;;;;;;5020642;28;20137;-70
2022/04/28 12:22:39;;;;;;;1.58;0.82;;;;;;;;;;5030220;28;20041;-74
2022/04/28 12:25:08;;;;;;;1.40;0.80;;;;;;;;;;5053121;28;20029;-71
2022/04/28 12:27:47;;;;;;;1.83;0.73;;;;;;;;;;5053219;28;20389;-72
2022/04/28 12:30:16;;;;;;;1.43;0.63;;;;;;;;;;5052352;28;20040;-74
2022/04/28 12:32:47;;;;;;;2.75;0.70;;;;;;;;;;5052995;28;20260;-73
2022/04/28 12:35:34;;;;;;;1.95;0.90;;;;;;;;;;5053066;28;20048;-70
2022/04/28 12:38:07;;;;;;;2.03;0.70;;;;;;;;;;5053217;28;20029;-72
2022/04/28 12:40:37;;;;;;;5.93;0.88;;;;;;;;;;5052403;28;20029;-72
2022/04/28 12:43:03;;;;;;;1.58;0.75;;;;;;;;;;5052831;28;20017;-72
2022/04/28 12:45:42;;;;;;;2.25;1.00;;;;;;;;;;5052606;28;20021;-69
2022/04/28 12:48:31;;;;;;;1.10;0.85;;;;;;;;;;5052229;28;20040;-72
2022/04/28 12:51:48;;;;;;;2.25;0.75;;;;;;;;;;5034227;28;20076;-71
2022/04/28 12:54:27;;;;;;;2.42;0.90;;;;;;;;;;5009798;28;20121;-70
2022/04/28 12:56:59;;;;;;;2.42;1.00;;;;;;;;;;5052333;28;20087;-72
2022/04/28 12:59:30;;;;;;;1.90;0.80;;;;;;;;;;5052172;28;20492;-74
2022/04/28 13:01:56;;;;;;;;;;;;;;;;;;5052685;28;20029;-70
2022/04/28 13:04:23;;;;;;;1.75;0.70;;;;;;;;;;5052122;28;19967;-73
2022/04/28 13:06:50;;;;;;;1.15;0.77;;;;;;;;;;5052358;28;20033;-72
2022/04/28 13:09:19;;;;;;;3.25;0.70;;;;;;;;;;5052292;28;20064;-73
2022/04/28 13:11:47;;;;;;;1.83;0.80;;;;;;;;;;5052097;28;20585;-70
2022/04/28 13:14:14;;;;;;;2.85;0.80;;;;;;;;;;5052208;28;20488;-74
2022/04/28 13:16:41;;;;;;;1.55;0.65;;;;;;;;;;5051941;28;20033;-73
2022/04/28 13:19:08;;;;;;;1.15;0.63;;;;;;;;;;5051846;28;20032;-74
2022/04/28 13:21:34;;;;;;;1.58;0.80;;;;;;;;;;5051676;28;20059;-74
2022/04/28 13:24:00;;;;;;;1.60;0.80;;;;;;;;;;5051831;28;20060;-74
2022/04/28 13:26:27;;;;;;;2.25;0.88;;;;;;;;;;5051672;28;20066;-74
2022/04/28 13:28:54;;;;;;;2.13;0.90;;;;;;;;;;5051899;28;20031;-71
2022/04/28 13:31:20;;;;;;;1.33;0.75;;;;;;;;;;5051325;28;20025;-72
2022/04/28 13:33:47;;;;;;;1.63;0.80;;;;;;;;;;5051859;28;20032;-72
2022/04/28 13:36:13;;;;;;;1.77;0.80;;;;;;;;;;5051490;28;20335;-70
2022/04/28 13:38:39;;;;;;;0.90;0.60;;;;;;;;;;5051583;28;20035;-70
2022/04/28 13:41:07;;;;;;;1.63;0.80;;;;;;;;;;5051016;28;20033;-74
2022/04/28 13:43:32;;;;;;;3.08;0.85;;;;;;;;;;5051590;28;20104;-73
2022/04/28 13:46:06;;;;;;;2.50;0.80;;;;;;;;;;5051320;28;20462;-73
2022/04/28 13:48:32;;;;;;;3.05;1.00;;;;;;;;;;5051474;28;20051;-73
2022/04/28 13:50:58;;;;;;;1.80;0.70;;;;;;;;;;5051102;28;20021;-72
2022/04/28 13:53:27;;;;;;;1.88;0.80;;;;;;;;;;5033353;28;20028;-70
2022/04/28 13:55:55;;;;;;;1.83;0.93;;;;;;;;;;5050748;28;20090;-72
2022/04/28 13:58:21;;;;;;;1.95;0.90;;;;;;;;;;5050931;28;20021;-69
2022/04/28 14:00:50;;;;;;;2.90;0.90;;;;;;;;;;5050182;28;20017;-71
2022/04/28 14:03:17;;;;;;;1.10;0.70;;;;;;;;;;5051572;28;20029;-73
2022/04/28 14:05:43;;;;;;;1.85;0.90;;;;;;;;;;5051063;28;20100;-72
2022/04/28 14:08:08;;;;;;;1.60;0.80;;;;;;;;;;5051551;28;20116;-73
2022/04/28 14:10:34;;;;;;;1.20;0.75;;;;;;;;;;5050606;28;20036;-71
2022/04/28 14:12:59;;;;;;;1.77;0.90;;;;;;;;;;5051370;28;20100;-74
2022/04/28 14:15:25;;;;;;;1.42;0.80;;;;;;;;;;5050609;28;20062;-72
2022/04/28 14:17:51;;;;;;;4.90;0.90;;;;;;;;;;5032986;28;20036;-72
2022/04/28 14:20:17;;;;;;;1.75;0.70;;;;;;;;;;5050888;28;20100;-70
2022/04/28 14:22:43;;;;;;;1.88;0.60;;;;;;;;;;5050853;28;20458;-72
2022/04/28 14:25:08;;;;;;;1.58;0.70;;;;;;;;;;5050806;28;20107;-72
2022/04/28 14:27:34;;;;;;;0.90;0.60;;;;;;;;;;5050661;28;20052;-69
2022/04/28 14:30:05;;;;;;;1.17;0.68;;;;;;;;;;5050667;28;20504;-73
2022/04/28 14:32:32;;;;;;;1.23;0.73;;;;;;;;;;5050264;28;20025;-72
2022/04/28 14:34:57;;;;;;;2.88;0.82;;;;;;;;;;5050780;28;20033;-71
2022/04/28 14:37:23;;;;;;;1.55;0.65;;;;;;;;;;5050621;28;20048;-70
2022/04/28 14:39:49;;;;;;;2.83;0.80;;;;;;;;;;5050702;28;20029;-72
2022/04/28 14:42:15;;;;;;;2.55;0.90;;;;;;;;;;5049986;28;20037;-72
2022/04/28 14:44:41;;;;;;;4.53;0.90;;;;;;;;;;5050254;28;20261;-70
2022/04/28 14:47:07;;;;;;;1.77;0.80;;;;;;;;;;5050193;28;20180;-74
2022/04/28 14:52:20;;;;;;;1.30;0.70;;;;;;;;;;5050158;28;20171;-74
2022/04/28 14:54:47;;;;;;;2.85;1.20;;;;;;;;;;5050710;28;20052;-71
2022/04/28 14:57:12;;;;;;;1.80;0.90;;;;;;;;;;5050176;28;20129;-74
2022/04/28 14:59:38;;;;;;;2.03;0.82;;;;;;;;;;5050405;28;20488;-74
2022/04/28 15:02:04;;;;;;;4.00;1.08;;;;;;;;;;5049807;28;20180;-72
2022/04/28 15:04:29;;;;;;;3.00;1.02;;;;;;;;;;5050169;28;20025;-72
2022/04/28 15:06:55;;;;;;;2.22;0.88;;;;;;;;;;5049907;28;20047;-70
2022/04/28 15:09:20;;;;;;;3.13;0.93;;;;;;;;;;5050154;28;20029;-74
2022/04/28 15:11:46;;;;;;;2.20;0.80;;;;;;;;;;5049659;28;20170;-73
2022/04/28 15:14:14;;;;;;;2.20;0.93;;;;;;;;;;5049920;28;20031;-72
2022/04/28 15:16:40;;;;;;;2.53;0.90;;;;;;;;;;5049758;28;20037;-72
2022/04/28 15:19:06;;;;;;;1.70;0.90;;;;;;;;;;5049936;28;20029;-72
2022/04/28 15:21:31;;;;;;;1.60;0.80;;;;;;;;;;5050735;28;20033;-75
2022/04/28 15:23:57;;;;;;;1.58;0.73;;;;;;;;;;5049978;28;20202;-72